Time;durP1;ratioP1;P1;durP2;ratioP2;P2;SDS_P1;SDS_P2;PMS_P1;PMS_P2;Temp;Humidity;BMP_temperature;BMP_pressure;BME280_temperature;BME280_humidity;BME280_pressure;Samples;Min_cycle;Max_cycle;Signal;HPM_P1;HPM_P2
2022/09/05 00:01:31;;;;;;;11.82;7.13;;;;;;;;;;4988762;28;20049;-71
2022/09/05 00:04:05;;;;;;;10.48;6.65;;;;;;;;;;4987129;28;20034;-71
2022/09/05 00:06:36;;;;;;;13.27;6.80;;;;;;;;;;4987752;28;20041;-69
2022/09/05 00:09:21;;;;;;;13.23;6.65;;;;;;;;;;4986450;28;20026;-69
2022/09/05 00:11:55;;;;;;;11.88;6.60;;;;;;;;;;4987868;28;20111;-70
2022/09/05 00:14:42;;;;;;;10.18;6.72;;;;;;;;;;4982844;28;20038;-70
2022/09/05 00:17:25;;;;;;;9.95;6.88;;;;;;;;;;4985429;28;20455;-69
2022/09/05 00:20:10;;;;;;;8.60;6.85;;;;;;;;;;4988466;28;20026;-69
2022/09/05 00:22:51;;;;;;;10.32;6.85;;;;;;;;;;4986766;28;20498;-68
2022/09/05 00:25:20;;;;;;;7.75;6.90;;;;;;;;;;4970490;28;20034;-70
2022/09/05 00:27:56;;;;;;;7.90;6.50;;;;;;;;;;4986284;28;20030;-69
2022/09/05 00:30:22;;;;;;;10.20;7.03;;;;;;;;;;4971151;28;20026;-70
2022/09/05 00:33:06;;;;;;;12.45;6.90;;;;;;;;;;4986200;28;20034;-71
2022/09/05 00:35:51;;;;;;;11.43;6.53;;;;;;;;;;4984218;28;20049;-71
2022/09/05 00:38:27;;;;;;;11.25;6.80;;;;;;;;;;4971366;28;20075;-69
2022/09/05 00:40:56;;;;;;;13.20;7.40;;;;;;;;;;4987182;28;20045;-71
2022/09/05 00:43:39;;;;;;;9.73;6.63;;;;;;;;;;4985974;28;20117;-71
2022/09/05 00:46:17;;;;;;;9.40;6.68;;;;;;;;;;4985928;28;20066;-71
2022/09/05 00:48:46;;;;;;;10.10;6.97;;;;;;;;;;4988901;28;20252;-69
2022/09/05 00:51:27;;;;;;;10.43;6.85;;;;;;;;;;4980559;28;20049;-69
2022/09/05 00:54:09;;;;;;;10.10;7.03;;;;;;;;;;4985368;28;20145;-69
2022/09/05 00:56:35;;;;;;;;;;;;;;;;;;4987182;28;20138;-69
2022/09/05 00:59:20;;;;;;;12.55;6.93;;;;;;;;;;4986910;28;19936;-69
2022/09/05 01:02:02;;;;;;;10.65;7.15;;;;;;;;;;4982340;28;20041;-69
2022/09/05 01:04:28;;;;;;;9.45;6.47;;;;;;;;;;4982922;28;20034;-69
2022/09/05 01:07:09;;;;;;;8.82;6.50;;;;;;;;;;4986789;28;20063;-70
2022/09/05 01:10:11;;;;;;;10.57;6.97;;;;;;;;;;4987025;28;20037;-70
2022/09/05 01:13:04;;;;;;;11.15;6.75;;;;;;;;;;4925244;29;20086;-70
2022/09/05 01:15:40;;;;;;;12.63;6.70;;;;;;;;;;4981167;28;20069;-69
2022/09/05 01:18:21;;;;;;;9.95;6.88;;;;;;;;;;4986827;28;20041;-69
2022/09/05 01:21:02;;;;;;;11.40;7.25;;;;;;;;;;4983099;28;20045;-70
2022/09/05 01:23:28;;;;;;;10.15;7.03;;;;;;;;;;4983481;28;20037;-70
2022/09/05 01:25:54;;;;;;;9.48;7.22;;;;;;;;;;4982848;28;20030;-70
2022/09/05 01:28:24;;;;;;;10.73;7.57;;;;;;;;;;4983785;28;20023;-70
2022/09/05 01:30:56;;;;;;;15.77;7.47;;;;;;;;;;4984848;28;20026;-70
2022/09/05 01:33:26;;;;;;;9.27;7.65;;;;;;;;;;4984694;28;20030;-69
2022/09/05 01:36:11;;;;;;;13.50;7.13;;;;;;;;;;4985723;28;20040;-69
2022/09/05 01:38:52;;;;;;;9.75;7.45;;;;;;;;;;4984466;28;20018;-70
2022/09/05 01:41:22;;;;;;;11.05;7.80;;;;;;;;;;4983972;28;20049;-69
2022/09/05 01:44:06;;;;;;;10.77;7.60;;;;;;;;;;4984912;28;20026;-69
2022/09/05 01:46:35;;;;;;;12.50;7.53;;;;;;;;;;4985071;28;20026;-70
2022/09/05 01:49:14;;;;;;;15.68;8.55;;;;;;;;;;4986895;28;20026;-70
2022/09/05 01:51:59;;;;;;;10.70;7.82;;;;;;;;;;4980433;28;20101;-70
2022/09/05 01:54:34;;;;;;;14.30;7.50;;;;;;;;;;4980409;28;20022;-70
2022/09/05 01:57:33;;;;;;;10.63;8.70;;;;;;;;;;4984434;28;20038;-70
2022/09/05 02:00:20;;;;;;;15.07;8.27;;;;;;;;;;4943360;28;20138;-70
2022/09/05 02:02:55;;;;;;;14.27;8.63;;;;;;;;;;4984843;28;20161;-70
2022/09/05 02:05:40;;;;;;;10.15;8.20;;;;;;;;;;4981047;28;20224;-70
2022/09/05 02:08:21;;;;;;;13.93;8.20;;;;;;;;;;4985945;28;20499;-70
2022/09/05 02:11:00;;;;;;;11.70;7.97;;;;;;;;;;4964081;28;20031;-70
2022/09/05 02:13:30;;;;;;;9.50;7.65;;;;;;;;;;4985332;28;20554;-70
2022/09/05 02:15:56;;;;;;;10.05;7.50;;;;;;;;;;4978497;28;20069;-70
2022/09/05 02:18:23;;;;;;;14.70;8.48;;;;;;;;;;4984234;28;20054;-69
2022/09/05 02:21:00;;;;;;;17.40;8.32;;;;;;;;;;4984356;28;20088;-69
2022/09/05 02:23:38;;;;;;;10.65;7.85;;;;;;;;;;4984271;28;20102;-70
2022/09/05 02:26:12;;;;;;;9.75;8.20;;;;;;;;;;4978222;28;20062;-70
2022/09/05 02:28:56;;;;;;;9.02;7.82;;;;;;;;;;4985450;28;20475;-70
2022/09/05 02:31:40;;;;;;;14.13;7.63;;;;;;;;;;4984237;28;20045;-70
2022/09/05 02:34:13;;;;;;;11.25;8.20;;;;;;;;;;4982802;28;20026;-70
2022/09/05 02:36:39;;;;;;;9.05;7.38;;;;;;;;;;4982813;28;20049;-69
2022/09/05 02:39:15;;;;;;;14.23;8.52;;;;;;;;;;4984446;28;20026;-70
2022/09/05 02:41:44;;;;;;;12.93;8.32;;;;;;;;;;4983607;28;20097;-70
2022/09/05 02:44:15;;;;;;;16.20;8.85;;;;;;;;;;4982704;28;20030;-70
2022/09/05 02:46:43;;;;;;;;;;;;;;;;;;4981625;28;20037;-71
2022/09/05 02:49:14;;;;;;;15.20;8.18;;;;;;;;;;4986225;28;20339;-71
2022/09/05 02:51:52;;;;;;;15.63;8.38;;;;;;;;;;4978825;28;20042;-71
2022/09/05 02:54:25;;;;;;;10.75;8.57;;;;;;;;;;4995685;28;20029;-71
2022/09/05 02:56:51;;;;;;;9.63;8.25;;;;;;;;;;4982761;28;20030;-71
2022/09/05 02:59:36;;;;;;;12.15;8.02;;;;;;;;;;4981358;28;20055;-70
2022/09/05 03:02:17;;;;;;;12.82;8.63;;;;;;;;;;4981341;28;20183;-70
2022/09/05 03:04:43;;;;;;;;;;;;;;;;;;4982101;28;20042;-70
2022/09/05 03:07:15;;;;;;;12.02;8.38;;;;;;;;;;4979189;28;19914;-69
2022/09/05 03:09:41;;;;;;;12.73;8.35;;;;;;;;;;4985357;28;20419;-68
2022/09/05 03:12:13;;;;;;;12.48;9.15;;;;;;;;;;4983678;28;20032;-70
2022/09/05 03:14:51;;;;;;;12.65;8.50;;;;;;;;;;4981265;28;20101;-70
2022/09/05 03:17:17;;;;;;;11.50;8.73;;;;;;;;;;4979237;28;20512;-70
2022/09/05 03:19:52;;;;;;;10.07;8.63;;;;;;;;;;4985622;28;20052;-69
2022/09/05 03:22:34;;;;;;;11.38;9.02;;;;;;;;;;4983424;28;20539;-70
2022/09/05 03:25:03;;;;;;;12.80;9.20;;;;;;;;;;4986007;28;20122;-70
2022/09/05 03:27:35;;;;;;;19.00;9.77;;;;;;;;;;4988334;28;20042;-70
2022/09/05 03:30:01;;;;;;;26.58;11.82;;;;;;;;;;4985874;28;20034;-71
2022/09/05 03:32:44;;;;;;;19.98;9.38;;;;;;;;;;4986881;28;20109;-71
2022/09/05 03:35:33;;;;;;;15.20;10.10;;;;;;;;;;4984014;28;20054;-71
2022/09/05 03:38:19;;;;;;;13.15;9.13;;;;;;;;;;4976802;28;20051;-71
2022/09/05 03:40:56;;;;;;;13.00;9.57;;;;;;;;;;4958698;28;20051;-71
2022/09/05 03:43:31;;;;;;;14.00;10.40;;;;;;;;;;4988122;28;20045;-71
2022/09/05 03:45:57;;;;;;;13.32;10.35;;;;;;;;;;4983445;28;20118;-70
2022/09/05 03:48:23;;;;;;;12.75;10.18;;;;;;;;;;4986051;28;20228;-70
2022/09/05 03:50:49;;;;;;;14.95;10.40;;;;;;;;;;4986538;28;20497;-71
2022/09/05 03:53:33;;;;;;;12.82;9.95;;;;;;;;;;4989631;28;20039;-70
2022/09/05 03:56:02;;;;;;;14.25;10.20;;;;;;;;;;4984073;28;20027;-71
2022/09/05 03:58:28;;;;;;;15.88;11.02;;;;;;;;;;4971633;28;20034;-71
2022/09/05 04:01:18;;;;;;;13.68;10.98;;;;;;;;;;4987789;28;20464;-71
2022/09/05 04:03:45;;;;;;;14.27;10.23;;;;;;;;;;4948775;28;20121;-70
2022/09/05 04:06:11;;;;;;;14.32;11.18;;;;;;;;;;4987269;28;20391;-71
2022/09/05 04:08:40;;;;;;;16.00;10.88;;;;;;;;;;4989524;28;20595;-70
2022/09/05 04:11:15;;;;;;;14.07;10.43;;;;;;;;;;4988984;28;20121;-71
2022/09/05 04:13:53;;;;;;;17.30;11.27;;;;;;;;;;4988692;28;20037;-70
2022/09/05 04:16:22;;;;;;;18.13;11.30;;;;;;;;;;4970454;28;20022;-70
2022/09/05 04:18:51;;;;;;;17.30;10.82;;;;;;;;;;4988782;28;20427;-70
2022/09/05 04:21:23;;;;;;;14.85;12.30;;;;;;;;;;4990314;28;20030;-70
2022/09/05 04:23:52;;;;;;;15.02;11.98;;;;;;;;;;4989947;28;20030;-70
2022/09/05 04:26:35;;;;;;;16.70;11.88;;;;;;;;;;4988877;28;20035;-70
2022/09/05 04:29:27;;;;;;;24.00;13.48;;;;;;;;;;4988793;28;20018;-70
2022/09/05 04:31:56;;;;;;;22.33;12.98;;;;;;;;;;4950806;28;20038;-69
2022/09/05 04:34:27;;;;;;;19.83;12.80;;;;;;;;;;4981728;28;20038;-69
2022/09/05 04:37:04;;;;;;;22.90;14.43;;;;;;;;;;4985326;28;20054;-69
2022/09/05 04:39:32;;;;;;;19.67;13.80;;;;;;;;;;4989591;28;20026;-70
2022/09/05 04:42:10;;;;;;;17.48;13.00;;;;;;;;;;4986438;28;20026;-70
2022/09/05 04:44:40;;;;;;;16.33;13.75;;;;;;;;;;4963712;28;20035;-70
2022/09/05 04:47:11;;;;;;;17.77;13.63;;;;;;;;;;4988863;28;20040;-71
2022/09/05 04:49:39;;;;;;;19.45;13.98;;;;;;;;;;4985887;28;20487;-69
2022/09/05 04:52:08;;;;;;;18.38;14.50;;;;;;;;;;4983699;28;20061;-70
2022/09/05 04:54:53;;;;;;;22.38;14.30;;;;;;;;;;4988060;28;20089;-70
2022/09/05 04:57:22;;;;;;;20.30;16.48;;;;;;;;;;4968188;28;20664;-70
2022/09/05 05:00:04;;;;;;;21.95;16.90;;;;;;;;;;4986880;28;20042;-69
2022/09/05 05:02:37;;;;;;;34.60;19.05;;;;;;;;;;4985748;28;20113;-71
2022/09/05 05:05:21;;;;;;;37.20;16.80;;;;;;;;;;4985568;28;20145;-70
2022/09/05 05:07:54;;;;;;;33.80;18.63;;;;;;;;;;4969188;28;20053;-71
2022/09/05 05:10:24;;;;;;;38.60;20.30;;;;;;;;;;4981553;28;20026;-71
2022/09/05 05:13:03;;;;;;;32.38;18.50;;;;;;;;;;4985994;28;20121;-68
2022/09/05 05:15:30;;;;;;;28.27;17.63;;;;;;;;;;4981234;28;20027;-68
2022/09/05 05:18:22;;;;;;;23.42;17.00;;;;;;;;;;4983256;28;20117;-69
2022/09/05 05:20:51;;;;;;;21.67;17.05;;;;;;;;;;4982835;28;20034;-68
2022/09/05 05:23:20;;;;;;;68.90;19.52;;;;;;;;;;4985492;28;20073;-68
2022/09/05 05:25:51;;;;;;;37.22;20.55;;;;;;;;;;4986587;28;20039;-69
2022/09/05 05:28:29;;;;;;;46.17;22.48;;;;;;;;;;4986649;28;20030;-68
2022/09/05 05:30:56;;;;;;;42.42;20.63;;;;;;;;;;4980845;28;20030;-69
2022/09/05 05:33:25;;;;;;;25.98;18.40;;;;;;;;;;4986238;28;20038;-68
2022/09/05 05:35:51;;;;;;;22.83;16.05;;;;;;;;;;4982515;28;20018;-68
2022/09/05 05:38:24;;;;;;;24.70;15.40;;;;;;;;;;4986341;28;20104;-68
2022/09/05 05:40:53;;;;;;;33.55;15.02;;;;;;;;;;4988500;28;20030;-69
2022/09/05 05:43:21;;;;;;;17.38;12.85;;;;;;;;;;4970954;28;20022;-69
2022/09/05 05:45:55;;;;;;;22.42;13.10;;;;;;;;;;4985600;28;20034;-69
2022/09/05 05:48:21;;;;;;;17.23;13.30;;;;;;;;;;4986916;28;20030;-68
2022/09/05 05:50:56;;;;;;;23.73;14.57;;;;;;;;;;4987555;28;20043;-67
2022/09/05 05:53:22;;;;;;;23.58;13.63;;;;;;;;;;4983988;28;20022;-68
2022/09/05 05:56:07;;;;;;;22.83;13.65;;;;;;;;;;4983079;28;20022;-69
2022/09/05 05:58:52;;;;;;;19.27;13.68;;;;;;;;;;4986566;28;20045;-69
2022/09/05 06:01:36;;;;;;;21.73;13.65;;;;;;;;;;4982191;28;20038;-68
2022/09/05 06:04:05;;;;;;;19.00;12.75;;;;;;;;;;4984364;28;20070;-68
2022/09/05 06:06:54;;;;;;;20.73;13.63;;;;;;;;;;4986471;28;20026;-68
2022/09/05 06:09:48;;;;;;;22.75;13.57;;;;;;;;;;4983175;28;20022;-67
2022/09/05 06:12:20;;;;;;;24.63;13.52;;;;;;;;;;4965661;28;20449;-68
2022/09/05 06:14:47;;;;;;;18.73;13.45;;;;;;;;;;4982101;28;20030;-67
2022/09/05 06:17:13;;;;;;;21.35;13.27;;;;;;;;;;4977299;28;20125;-69
2022/09/05 06:19:48;;;;;;;18.45;13.15;;;;;;;;;;4979222;28;20093;-68
2022/09/05 06:22:34;;;;;;;18.70;12.85;;;;;;;;;;4982269;28;20030;-69
2022/09/05 06:25:29;;;;;;;17.73;12.88;;;;;;;;;;4971468;28;20030;-68
2022/09/05 06:28:05;;;;;;;24.90;12.80;;;;;;;;;;4977019;28;20037;-68
2022/09/05 06:30:39;;;;;;;17.10;12.63;;;;;;;;;;4978031;28;20450;-67
2022/09/05 06:33:15;;;;;;;17.45;12.35;;;;;;;;;;4986714;28;20038;-68
2022/09/05 06:35:56;;;;;;;21.98;11.95;;;;;;;;;;4971170;28;20018;-69
2022/09/05 06:38:41;;;;;;;20.75;12.13;;;;;;;;;;4971418;28;20499;-69
2022/09/05 06:41:14;;;;;;;18.33;12.20;;;;;;;;;;4971438;28;20063;-69
2022/09/05 06:43:46;;;;;;;20.20;12.05;;;;;;;;;;4986219;28;20077;-69
2022/09/05 06:46:25;;;;;;;15.98;11.05;;;;;;;;;;4985503;28;20033;-70
2022/09/05 06:48:58;;;;;;;17.02;12.10;;;;;;;;;;4988728;28;20113;-70
2022/09/05 06:51:33;;;;;;;20.88;11.48;;;;;;;;;;4987620;28;20053;-68
2022/09/05 06:54:05;;;;;;;16.45;11.73;;;;;;;;;;4990007;28;20032;-69
2022/09/05 06:56:49;;;;;;;22.38;11.63;;;;;;;;;;4987491;28;20108;-69
2022/09/05 06:59:24;;;;;;;16.50;11.52;;;;;;;;;;4986911;28;20037;-69
2022/09/05 07:01:55;;;;;;;18.27;11.70;;;;;;;;;;4989204;28;20141;-69
2022/09/05 07:04:27;;;;;;;16.25;12.18;;;;;;;;;;4988658;28;20061;-70
2022/09/05 07:07:02;;;;;;;20.13;12.13;;;;;;;;;;4987150;28;20033;-69
2022/09/05 07:09:31;;;;;;;20.65;11.88;;;;;;;;;;4979262;28;20030;-69
2022/09/05 07:12:09;;;;;;;16.92;11.50;;;;;;;;;;4990423;28;20088;-69
2022/09/05 07:14:43;;;;;;;22.95;12.02;;;;;;;;;;4990174;28;20037;-70
2022/09/05 07:17:13;;;;;;;21.15;10.90;;;;;;;;;;4973231;28;20062;-68
2022/09/05 07:19:50;;;;;;;23.27;11.52;;;;;;;;;;4970958;28;20484;-70
2022/09/05 07:22:16;;;;;;;28.48;12.43;;;;;;;;;;4952799;28;20410;-68
2022/09/05 07:24:45;;;;;;;16.23;10.43;;;;;;;;;;4975221;28;20054;-69
2022/09/05 07:27:12;;;;;;;17.50;10.48;;;;;;;;;;4988686;28;20057;-69
2022/09/05 07:29:43;;;;;;;16.30;11.02;;;;;;;;;;4962354;28;20031;-69
2022/09/05 07:32:13;;;;;;;17.92;10.70;;;;;;;;;;4983508;28;20034;-69
2022/09/05 07:34:39;;;;;;;15.45;9.95;;;;;;;;;;4989964;28;20049;-69
2022/09/05 07:37:34;;;;;;;16.77;9.90;;;;;;;;;;4988748;28;20212;-69
2022/09/05 07:40:01;;;;;;;20.58;10.23;;;;;;;;;;4968235;28;20318;-69
2022/09/05 07:42:32;;;;;;;14.00;9.13;;;;;;;;;;4972472;28;20118;-68
2022/09/05 07:44:58;;;;;;;;;;;;;;;;;;4989466;28;20033;-69
2022/09/05 07:47:29;;;;;;;15.10;9.20;;;;;;;;;;4986390;28;19913;-69
2022/09/05 07:49:58;;;;;;;12.05;9.15;;;;;;;;;;4990203;28;20045;-69
2022/09/05 07:52:28;;;;;;;15.07;8.70;;;;;;;;;;4988798;28;20034;-69
2022/09/05 07:54:58;;;;;;;13.07;8.43;;;;;;;;;;4977806;28;20038;-70
2022/09/05 07:57:31;;;;;;;16.17;9.27;;;;;;;;;;4972535;28;20058;-69
2022/09/05 08:00:08;;;;;;;12.68;8.88;;;;;;;;;;4970926;28;20146;-68
2022/09/05 08:02:34;;;;;;;15.07;8.18;;;;;;;;;;4988610;28;20057;-69
2022/09/05 08:05:04;;;;;;;16.73;8.25;;;;;;;;;;4976876;28;20523;-69
2022/09/05 08:07:32;;;;;;;12.80;8.27;;;;;;;;;;4958590;28;20400;-68
2022/09/05 08:10:01;;;;;;;12.95;7.70;;;;;;;;;;4973768;28;20045;-68
2022/09/05 08:12:32;;;;;;;15.15;7.20;;;;;;;;;;4989705;28;20081;-68
2022/09/05 08:15:13;;;;;;;11.55;7.90;;;;;;;;;;4993825;28;20062;-69
2022/09/05 08:17:49;;;;;;;20.75;7.32;;;;;;;;;;4992688;28;20117;-69
2022/09/05 08:20:21;;;;;;;12.00;6.45;;;;;;;;;;4992669;28;20038;-69
2022/09/05 08:22:58;;;;;;;10.63;5.25;;;;;;;;;;4992684;28;20030;-69
2022/09/05 08:25:29;;;;;;;15.70;5.53;;;;;;;;;;4992339;28;20026;-69
2022/09/05 08:28:01;;;;;;;11.23;4.97;;;;;;;;;;4974612;28;20030;-69
2022/09/05 08:30:31;;;;;;;8.05;4.40;;;;;;;;;;4981504;28;20049;-69
2022/09/05 08:33:00;;;;;;;8.15;3.90;;;;;;;;;;4973253;28;20093;-69
2022/09/05 08:35:28;;;;;;;7.80;4.10;;;;;;;;;;4973479;28;20073;-69
2022/09/05 08:37:56;;;;;;;10.90;4.50;;;;;;;;;;4973743;28;20082;-70
2022/09/05 08:40:37;;;;;;;9.32;4.20;;;;;;;;;;4956794;28;20821;-70
2022/09/05 08:43:09;;;;;;;10.18;4.07;;;;;;;;;;4976502;28;20034;-70
2022/09/05 08:45:38;;;;;;;9.68;4.13;;;;;;;;;;4992392;28;20030;-70
2022/09/05 08:48:07;;;;;;;8.88;3.88;;;;;;;;;;4973815;28;20035;-67
2022/09/05 08:50:45;;;;;;;10.02;3.80;;;;;;;;;;4975069;28;20090;-68
2022/09/05 08:53:20;;;;;;;7.03;3.65;;;;;;;;;;4972797;28;20089;-69
2022/09/05 08:55:53;;;;;;;9.15;3.40;;;;;;;;;;4978644;28;20045;-67
2022/09/05 08:58:19;;;;;;;11.75;3.20;;;;;;;;;;4992232;28;20113;-68
2022/09/05 09:00:59;;;;;;;11.20;3.38;;;;;;;;;;4987515;28;20038;-68
2022/09/05 09:03:41;;;;;;;7.63;3.35;;;;;;;;;;4994033;28;20049;-68
2022/09/05 09:06:31;;;;;;;6.13;3.10;;;;;;;;;;4993269;28;20617;-68
2022/09/05 09:09:03;;;;;;;10.93;3.22;;;;;;;;;;4993562;28;20045;-70
2022/09/05 09:11:48;;;;;;;9.13;3.85;;;;;;;;;;4991649;28;20100;-68
2022/09/05 09:14:43;;;;;;;11.65;3.00;;;;;;;;;;4991278;28;20549;-69
2022/09/05 09:17:27;;;;;;;16.83;3.92;;;;;;;;;;4903816;28;20041;-68
2022/09/05 09:20:08;;;;;;;10.27;2.88;;;;;;;;;;4990926;28;20038;-68
2022/09/05 09:22:40;;;;;;;6.63;2.85;;;;;;;;;;4991640;28;20141;-68
2022/09/05 09:25:09;;;;;;;8.02;2.25;;;;;;;;;;4990065;28;20125;-68
2022/09/05 09:27:41;;;;;;;12.57;2.90;;;;;;;;;;4991543;28;20031;-68
2022/09/05 09:30:07;;;;;;;10.02;2.55;;;;;;;;;;4985794;28;20026;-68
2022/09/05 09:32:42;;;;;;;11.07;2.60;;;;;;;;;;4991318;28;20022;-68
2022/09/05 09:35:26;;;;;;;7.57;2.45;;;;;;;;;;4989584;28;20030;-68
2022/09/05 09:38:19;;;;;;;6.60;2.35;;;;;;;;;;4979366;28;20030;-69
2022/09/05 09:41:05;;;;;;;12.98;2.95;;;;;;;;;;4964472;28;20210;-69
2022/09/05 09:43:34;;;;;;;4.10;2.30;;;;;;;;;;4984438;28;20173;-69
2022/09/05 09:46:26;;;;;;;5.22;2.08;;;;;;;;;;4981541;28;20041;-69
2022/09/05 09:48:59;;;;;;;4.68;2.05;;;;;;;;;;4968559;28;20046;-69
2022/09/05 09:51:34;;;;;;;7.30;2.15;;;;;;;;;;4987615;28;20054;-69
2022/09/05 09:54:19;;;;;;;11.15;2.10;;;;;;;;;;4988830;28;20030;-68
2022/09/05 09:56:54;;;;;;;5.50;1.80;;;;;;;;;;4986127;28;20034;-69
2022/09/05 09:59:23;;;;;;;8.30;2.60;;;;;;;;;;4980687;28;20038;-69
2022/09/05 10:02:14;;;;;;;16.97;1.90;;;;;;;;;;4986879;28;20478;-70
2022/09/05 10:04:58;;;;;;;6.30;1.98;;;;;;;;;;4976410;28;20069;-69
2022/09/05 10:07:24;;;;;;;5.55;2.00;;;;;;;;;;4987134;28;20030;-69
2022/09/05 10:09:50;;;;;;;6.28;2.00;;;;;;;;;;4984718;28;20045;-69
2022/09/05 10:12:22;;;;;;;11.85;2.17;;;;;;;;;;4981754;28;20484;-69
2022/09/05 10:15:07;;;;;;;8.18;2.20;;;;;;;;;;4988714;28;20030;-70
2022/09/05 10:17:32;;;;;;;6.90;1.95;;;;;;;;;;4981822;28;20473;-69
2022/09/05 10:20:05;;;;;;;5.57;1.63;;;;;;;;;;4989305;28;20072;-69
2022/09/05 10:22:50;;;;;;;11.45;1.90;;;;;;;;;;4990976;28;20026;-70
2022/09/05 10:25:16;;;;;;;4.75;1.92;;;;;;;;;;4989610;28;20030;-70
2022/09/05 10:27:59;;;;;;;3.78;1.92;;;;;;;;;;4989464;28;20476;-70
2022/09/05 10:30:40;;;;;;;5.75;1.80;;;;;;;;;;4988729;28;20041;-71
2022/09/05 10:33:25;;;;;;;8.48;2.25;;;;;;;;;;4985844;28;20109;-70
2022/09/05 10:35:53;;;;;;;4.93;2.05;;;;;;;;;;4990518;28;20480;-70
2022/09/05 10:38:42;;;;;;;7.82;2.20;;;;;;;;;;4972843;28;20030;-70
2022/09/05 10:41:18;;;;;;;5.68;1.90;;;;;;;;;;4989496;28;20030;-70
2022/09/05 10:43:44;;;;;;;5.15;1.70;;;;;;;;;;4986208;28;20032;-70
2022/09/05 10:46:19;;;;;;;7.40;2.00;;;;;;;;;;4989105;28;20465;-71
2022/09/05 10:48:50;;;;;;;5.95;1.98;;;;;;;;;;4989704;28;20030;-70
2022/09/05 10:51:18;;;;;;;4.30;1.80;;;;;;;;;;4988623;28;20046;-70
2022/09/05 10:53:49;;;;;;;10.13;2.10;;;;;;;;;;4990344;28;20058;-69
2022/09/05 10:56:20;;;;;;;3.85;1.75;;;;;;;;;;4973684;28;20097;-70
2022/09/05 10:58:58;;;;;;;9.98;2.22;;;;;;;;;;4971326;28;20053;-70
2022/09/05 11:01:24;;;;;;;6.57;1.80;;;;;;;;;;4988594;28;20042;-70
2022/09/05 11:03:59;;;;;;;9.30;1.80;;;;;;;;;;4988987;28;20033;-68
2022/09/05 11:06:45;;;;;;;9.20;2.30;;;;;;;;;;4972509;28;20034;-69
2022/09/05 11:09:11;;;;;;;8.63;1.90;;;;;;;;;;4976992;28;20030;-68
2022/09/05 11:11:46;;;;;;;3.17;1.70;;;;;;;;;;4989206;28;20057;-68
2022/09/05 11:14:24;;;;;;;9.88;1.60;;;;;;;;;;4988148;28;20081;-68
2022/09/05 11:16:52;;;;;;;5.65;1.98;;;;;;;;;;4989361;28;20046;-68
2022/09/05 11:19:19;;;;;;;7.55;2.15;;;;;;;;;;4989513;28;20167;-68
2022/09/05 11:21:51;;;;;;;4.32;1.50;;;;;;;;;;4988798;28;20043;-68
2022/09/05 11:24:25;;;;;;;7.60;1.80;;;;;;;;;;4989394;28;20038;-68
2022/09/05 11:26:57;;;;;;;6.28;2.22;;;;;;;;;;4989062;28;20507;-69
2022/09/05 11:29:43;;;;;;;6.93;1.70;;;;;;;;;;4970549;28;20488;-68
2022/09/05 11:32:13;;;;;;;7.65;1.88;;;;;;;;;;4987287;28;20030;-70
2022/09/05 11:34:48;;;;;;;6.10;1.60;;;;;;;;;;4986164;28;20019;-70
2022/09/05 11:37:44;;;;;;;4.35;1.95;;;;;;;;;;4984421;28;20073;-70
2022/09/05 11:40:15;;;;;;;6.75;2.00;;;;;;;;;;4896723;28;20055;-68
2022/09/05 11:42:47;;;;;;;7.85;1.83;;;;;;;;;;4986038;28;20699;-68
2022/09/05 11:45:32;;;;;;;9.40;1.90;;;;;;;;;;4988652;28;20105;-69
2022/09/05 11:48:06;;;;;;;7.82;1.90;;;;;;;;;;4976954;28;20310;-69
2022/09/05 11:50:45;;;;;;;6.28;1.70;;;;;;;;;;4978917;28;20046;-68
2022/09/05 11:53:30;;;;;;;5.70;2.23;;;;;;;;;;4988998;28;20029;-69
2022/09/05 11:55:59;;;;;;;4.40;2.05;;;;;;;;;;4987758;28;20038;-69
2022/09/05 11:58:51;;;;;;;9.85;1.80;;;;;;;;;;4984962;28;20034;-68
2022/09/05 12:01:23;;;;;;;3.47;1.98;;;;;;;;;;4955199;28;20094;-69
2022/09/05 12:04:07;;;;;;;8.55;2.28;;;;;;;;;;4991987;28;20121;-69
2022/09/05 12:07:09;;;;;;;3.47;1.73;;;;;;;;;;4992744;28;20530;-68
2022/09/05 12:09:46;;;;;;;3.55;2.08;;;;;;;;;;4892822;29;20088;-69
2022/09/05 12:12:30;;;;;;;8.43;2.15;;;;;;;;;;4980853;28;20062;-68
2022/09/05 12:14:56;;;;;;;11.45;2.05;;;;;;;;;;4975467;28;20052;-70
2022/09/05 12:17:28;;;;;;;6.30;2.10;;;;;;;;;;4988259;28;20487;-69
2022/09/05 12:19:54;;;;;;;7.50;1.98;;;;;;;;;;4988500;28;20039;-69
2022/09/05 12:22:32;;;;;;;5.63;2.20;;;;;;;;;;4987990;28;20503;-69
2022/09/05 12:25:19;;;;;;;4.75;1.83;;;;;;;;;;4987406;28;20061;-68
2022/09/05 12:27:47;;;;;;;5.75;2.15;;;;;;;;;;4966843;28;20027;-68
2022/09/05 12:30:21;;;;;;;6.07;2.05;;;;;;;;;;4987500;28;20026;-68
2022/09/05 12:32:51;;;;;;;10.85;3.03;;;;;;;;;;4985815;28;20029;-68
2022/09/05 12:35:30;;;;;;;5.50;2.00;;;;;;;;;;4986964;28;20105;-68
2022/09/05 12:38:11;;;;;;;5.40;1.70;;;;;;;;;;4981390;28;20737;-68
2022/09/05 12:40:38;;;;;;;11.90;2.10;;;;;;;;;;4987062;28;20038;-69
2022/09/05 12:43:06;;;;;;;6.97;2.00;;;;;;;;;;4988153;28;20133;-69
2022/09/05 12:45:40;;;;;;;5.18;2.08;;;;;;;;;;4987016;28;20716;-68
2022/09/05 12:48:06;;;;;;;8.68;1.98;;;;;;;;;;4986741;28;20503;-68
2022/09/05 12:50:38;;;;;;;5.63;2.05;;;;;;;;;;4988555;28;20070;-68
2022/09/05 12:53:08;;;;;;;11.25;1.80;;;;;;;;;;4986108;28;20035;-68
2022/09/05 12:55:40;;;;;;;2.95;1.50;;;;;;;;;;4984113;28;20027;-68
2022/09/05 12:58:17;;;;;;;6.97;1.90;;;;;;;;;;4984991;28;20492;-69
2022/09/05 13:00:44;;;;;;;6.88;1.70;;;;;;;;;;4992766;28;20121;-69
2022/09/05 13:03:26;;;;;;;6.50;2.00;;;;;;;;;;4991607;28;20030;-68
2022/09/05 13:06:13;;;;;;;8.25;1.77;;;;;;;;;;4989457;28;20046;-69
2022/09/05 13:08:42;;;;;;;5.80;1.95;;;;;;;;;;4976106;28;20042;-68
2022/09/05 13:11:09;;;;;;;6.95;2.20;;;;;;;;;;4974344;28;20442;-69
2022/09/05 13:13:40;;;;;;;8.27;2.00;;;;;;;;;;4973745;28;20030;-68
2022/09/05 13:16:08;;;;;;;4.93;2.10;;;;;;;;;;4991864;28;20031;-69
2022/09/05 13:18:39;;;;;;;6.78;2.20;;;;;;;;;;4991870;28;20045;-68
2022/09/05 13:21:19;;;;;;;4.15;1.50;;;;;;;;;;4991261;28;20034;-68
2022/09/05 13:23:45;;;;;;;6.63;1.98;;;;;;;;;;4971552;28;20488;-69
2022/09/05 13:26:22;;;;;;;4.93;1.50;;;;;;;;;;4984867;28;20026;-69
2022/09/05 13:28:54;;;;;;;8.88;1.88;;;;;;;;;;4990122;28;20053;-69
2022/09/05 13:31:41;;;;;;;8.00;1.80;;;;;;;;;;4982867;28;20026;-69
2022/09/05 13:34:14;;;;;;;6.00;1.75;;;;;;;;;;4984538;28;20033;-69
2022/09/05 13:36:59;;;;;;;8.88;2.00;;;;;;;;;;4983449;28;20472;-69
2022/09/05 13:39:27;;;;;;;5.82;1.80;;;;;;;;;;4973721;28;20512;-69
2022/09/05 13:42:02;;;;;;;6.65;1.55;;;;;;;;;;4984990;28;20023;-69
2022/09/05 13:44:29;;;;;;;9.13;1.80;;;;;;;;;;4990495;28;20034;-68
2022/09/05 13:47:15;;;;;;;9.15;1.85;;;;;;;;;;4987936;28;20026;-68
2022/09/05 13:49:51;;;;;;;7.95;1.90;;;;;;;;;;4986473;28;20611;-68
2022/09/05 13:52:20;;;;;;;4.88;1.75;;;;;;;;;;4984478;28;20054;-68
2022/09/05 13:54:54;;;;;;;5.95;1.65;;;;;;;;;;4985892;28;20065;-69
2022/09/05 13:57:39;;;;;;;5.15;1.90;;;;;;;;;;4985800;28;20113;-70
2022/09/05 14:00:12;;;;;;;7.45;2.00;;;;;;;;;;4984227;28;20113;-70
2022/09/05 14:02:51;;;;;;;6.90;1.90;;;;;;;;;;4983788;28;20081;-69
2022/09/05 14:05:23;;;;;;;4.20;1.60;;;;;;;;;;4985388;28;20441;-70
2022/09/05 14:08:16;;;;;;;5.38;1.63;;;;;;;;;;4984369;28;20076;-68
2022/09/05 14:10:59;;;;;;;7.30;1.88;;;;;;;;;;4976169;28;20039;-69
2022/09/05 14:13:26;;;;;;;5.95;1.83;;;;;;;;;;4971674;28;20553;-69
2022/09/05 14:16:13;;;;;;;4.13;1.60;;;;;;;;;;4979271;28;20363;-69
2022/09/05 14:21:14;;;;;;;7.47;1.63;;;;;;;;;;4991075;28;20357;-69
2022/09/05 14:21:28;;;;;;;5.47;1.55;;;;;;;;;;4984015;28;20496;-69
2022/09/05 14:24:00;;;;;;;9.18;2.25;;;;;;;;;;4963661;28;20034;-70
2022/09/05 14:26:34;;;;;;;5.78;1.80;;;;;;;;;;4983327;28;20121;-69
2022/09/05 14:29:03;;;;;;;10.73;1.80;;;;;;;;;;4987339;28;20038;-69
2022/09/05 14:31:45;;;;;;;20.77;2.72;;;;;;;;;;4988671;28;20034;-69
2022/09/05 14:34:27;;;;;;;8.05;1.80;;;;;;;;;;4983116;28;20022;-70
2022/09/05 14:37:16;;;;;;;9.60;1.90;;;;;;;;;;4985151;28;20119;-68
2022/09/05 14:39:51;;;;;;;8.88;2.22;;;;;;;;;;4985334;28;20030;-68
2022/09/05 14:42:41;;;;;;;6.18;2.00;;;;;;;;;;4970140;28;20065;-69
2022/09/05 14:45:29;;;;;;;11.52;1.45;;;;;;;;;;4968477;28;20125;-69
2022/09/05 14:48:04;;;;;;;6.93;1.80;;;;;;;;;;4984524;28;20480;-69
2022/09/05 14:50:49;;;;;;;5.50;1.55;;;;;;;;;;4984647;28;20041;-69
2022/09/05 14:53:17;;;;;;;9.30;1.85;;;;;;;;;;4969147;28;20494;-69
2022/09/05 14:56:00;;;;;;;7.18;1.70;;;;;;;;;;4987470;28;20069;-70
2022/09/05 14:58:27;;;;;;;16.63;2.30;;;;;;;;;;4983384;28;20126;-70
2022/09/05 15:00:58;;;;;;;12.95;1.60;;;;;;;;;;4987119;28;20037;-69
2022/09/05 15:03:44;;;;;;;5.72;2.08;;;;;;;;;;4985014;28;20072;-70
2022/09/05 15:06:13;;;;;;;9.85;2.25;;;;;;;;;;4986972;28;20031;-69
2022/09/05 15:08:40;;;;;;;8.82;1.60;;;;;;;;;;4989774;28;20153;-69
2022/09/05 15:11:12;;;;;;;6.40;1.70;;;;;;;;;;4985357;28;20081;-69
2022/09/05 15:13:51;;;;;;;7.25;2.20;;;;;;;;;;4985610;28;20106;-69
2022/09/05 15:16:19;;;;;;;7.25;2.08;;;;;;;;;;4984417;28;20023;-69
2022/09/05 15:18:47;;;;;;;8.23;2.10;;;;;;;;;;4988876;28;20037;-69
2022/09/05 15:21:31;;;;;;;24.17;3.42;;;;;;;;;;4987486;28;20044;-69